Orangeburg, SC

6:53 AM EST on December 29, 2014 (GMT -0500)
Orangeburg Municipal | Change Station
CLOSE
Current Station
Airport
Location: Orangeburg,
Elevation: 197 ft
Nearby Weather Stations

Elev 197 ft 33.46 °N, 80.86 °W | Updated 39 minutes ago

Overcast
Overcast
61 °F
Feels Like 61 °F
N
9
Wind Variable Wind from SSW

Today
High -- | Low -- °F
--% Chance of Precip.
Yesterday
High -- | Low -- °F
Precip. -- in
7:26 AM 5:24 PM
First Quarter, 58% visible
Pressure 30.00 in
Visibility 4.0 miles
Clouds Overcast 200 ft
Dew Point 59 °F
Humidity 93%
Rainfall 0.00 in
Snow Depth Not available.
UV 0 out of 12
Pollen .10 out of 12
Air Quality Not available.
Flu Activity Not available.
SPECI KOGB 291114Z AUTO 21008KT 4SM BR OVC002 16/15 A3000 RMK AO2 T01610150

More Conditions Fewer Conditions

Pressure 30.00 in
Visibility 4.0 miles
Clouds Overcast 200 ft
Dew Point 59 °F
Humidity 93%
Rainfall 0.00 in
Snow Depth Not available.
UV 0 out of 12
Pollen .10 out of 12
Air Quality Not available.
Flu Activity Not available.
SPECI KOGB 291114Z AUTO 21008KT 4SM BR OVC002 16/15 A3000 RMK AO2 T01610150

More Conditions Fewer Conditions

10-Day Weather Forecast

Almanac

Astronomy

Dec. 29, 2014 Rise Set
Actual Time
Civil Twilight
Nautical Twilight
Astronomical Twilight
Moon
Length of Visible Light
Length of Day
Tomorrow will be .
, % of the Moon is Illuminated

Today's Extremes

State Highs State Lows

Community

WunderPhotos

Upload Photos

1,781,571 photos uploaded!

WunderBlogs® & News

Nearby

Air Quality

  Air Quality AQ Index Pollutant
Not available.

Snow Depth

Station Depth Elevation

Earthquake Activity

City Distance Mag. Time & Date
Minimum magnitude displayed is 2.5.

Coastal Water Temperatures

Place Temperature

Nearby Weather Stations